Time;durP1;ratioP1;P1;durP2;ratioP2;P2;SDS_P1;SDS_P2;PMS_P1;PMS_P2;Temp;Humidity;BMP_temperature;BMP_pressure;BME280_temperature;BME280_humidity;BME280_pressure;Samples;Min_cycle;Max_cycle;Signal;HPM_P1;HPM_P2
2023/10/09 04:02:38;;;;;;;0.60;0.20;;;16.20;99.90;;;;;;4939443;29;20974;-76
2023/10/09 04:05:07;;;;;;;1.10;0.87;;;16.10;99.90;;;;;;4936563;29;20443;-77
2023/10/09 04:07:35;;;;;;;0.60;0.10;;;16.00;99.90;;;;;;4954003;28;20497;-76
2023/10/09 04:10:32;;;;;;;0.60;0.20;;;;;;;;;;4955010;28;20485;-77
2023/10/09 04:12:53;;;;;;;0.70;0.60;;;16.00;99.90;;;;;;4936987;29;20826;-76
2023/10/09 04:15:23;;;;;;;0.70;0.30;;;15.90;99.90;;;;;;5030072;23;20585;-71
2023/10/09 04:17:52;;;;;;;0.60;0.27;;;15.90;99.90;;;;;;4971840;28;20512;-72
2023/10/09 04:23:35;;;;;;;1.53;1.27;;;;;;;;;;4963760;28;20494;-72
2023/10/09 04:26:14;;;;;;;0.60;0.10;;;;;;;;;;4972878;28;20477;-73
2023/10/09 04:31:51;;;;;;;2.10;2.00;;;;;;;;;;4972869;28;20453;-72
2023/10/09 04:34:23;;;;;;;7.23;1.43;;;15.90;99.90;;;;;;4972329;28;20466;-71
2023/10/09 04:36:51;;;;;;;0.60;0.40;;;15.80;99.90;;;;;;4972732;28;20827;-71
2023/10/09 04:39:46;;;;;;;0.60;0.10;;;15.80;99.90;;;;;;4972720;28;20852;-72
2023/10/09 04:42:36;;;;;;;0.60;0.10;;;15.80;99.90;;;;;;4972835;28;20485;-71
2023/10/09 04:47:57;;;;;;;0.60;0.23;;;15.70;99.90;;;;;;4975458;28;20469;-72
2023/10/09 04:53:24;;;;;;;0.60;0.10;;;15.60;99.90;;;;;;4972438;28;20488;-71
2023/10/09 04:55:54;;;;;;;0.70;0.50;;;15.40;99.90;;;;;;4972520;28;20652;-70
2023/10/09 04:58:26;;;;;;;0.60;0.40;;;15.30;99.90;;;;;;4972093;28;20446;-71
2023/10/09 05:01:12;;;;;;;2.10;1.90;;;15.30;99.90;;;;;;4972552;28;20446;-71
2023/10/09 05:03:44;;;;;;;5.03;2.80;;;15.30;99.90;;;;;;4966653;28;20944;-71
2023/10/09 05:09:08;;;;;;;1.43;1.17;;;15.20;99.90;;;;;;4978944;28;20843;-70
2023/10/09 05:12:09;;;;;;;0.80;0.43;;;15.20;99.90;;;;;;4982858;28;20907;-71
2023/10/09 05:14:45;;;;;;;1.70;1.60;;;15.30;99.90;;;;;;4972218;28;20825;-71
2023/10/09 05:17:18;;;;;;;1.67;1.23;;;15.30;99.90;;;;;;4980993;28;20527;-71
2023/10/09 05:20:55;;;;;;;1.17;0.60;;;15.30;99.90;;;;;;4985122;28;20949;-72
2023/10/09 05:22:56;;;;;;;2.73;0.97;;;15.30;99.90;;;;;;4971826;28;20489;-71
2023/10/09 05:25:53;;;;;;;0.60;0.20;;;15.20;99.90;;;;;;4972275;28;20471;-72
2023/10/09 05:28:31;;;;;;;1.07;0.83;;;15.20;99.90;;;;;;4972045;28;20465;-71
2023/10/09 05:31:06;;;;;;;0.60;0.10;;;15.20;99.90;;;;;;4971458;28;20961;-72
2023/10/09 05:33:36;;;;;;;1.63;1.40;;;15.30;99.90;;;;;;4970512;28;20811;-72
2023/10/09 05:36:14;;;;;;;0.70;0.57;;;15.30;99.90;;;;;;4969583;28;20883;-72
2023/10/09 05:38:58;;;;;;;0.90;0.30;;;15.40;99.90;;;;;;4971845;28;20928;-71
2023/10/09 05:41:45;;;;;;;1.90;1.47;;;15.40;99.90;;;;;;4971620;28;21007;-71
2023/10/09 05:50:33;;;;;;;13.23;3.30;;;15.60;99.90;;;;;;5089055;28;20635;-71
2023/10/09 05:53:16;;;;;;;0.60;0.10;;;15.70;99.90;;;;;;5084601;28;20526;-72
2023/10/09 06:04:15;;;;;;;0.60;0.10;;;16.00;99.90;;;;;;5068361;28;20464;-73
2023/10/09 06:06:45;;;;;;;0.60;0.10;;;16.00;99.90;;;;;;5068223;28;20441;-72
2023/10/09 06:14:57;;;;;;;0.60;0.10;;;16.10;99.90;;;;;;5068599;28;20844;-72
2023/10/09 06:17:27;;;;;;;1.33;1.23;;;15.70;99.90;;;;;;5067923;28;20441;-72
2023/10/09 06:19:59;;;;;;;0.60;0.20;;;16.20;99.90;;;;;;5061148;28;20469;-75
2023/10/09 06:25:17;;;;;;;1.40;1.30;;;16.30;99.90;;;;;;5061916;28;20531;-72
2023/10/09 06:27:57;;;;;;;0.70;0.50;;;16.20;99.90;;;;;;5067420;28;20441;-74
2023/10/09 06:30:26;;;;;;;0.60;0.10;;;16.20;99.90;;;;;;5064204;28;20940;-71
2023/10/09 06:33:19;;;;;;;0.60;0.10;;;16.20;99.90;;;;;;5047424;28;20454;-71
2023/10/09 06:35:53;;;;;;;0.93;0.83;;;16.30;99.90;;;;;;5066490;28;20473;-73
2023/10/09 06:38:23;;;;;;;0.60;0.10;;;16.30;99.90;;;;;;5066540;28;20494;-71
2023/10/09 06:43:47;;;;;;;1.03;0.93;;;16.40;99.90;;;;;;5047581;28;20496;-72
2023/10/09 06:49:28;;;;;;;0.60;0.40;;;16.50;99.90;;;;;;5066944;28;20485;-73
2023/10/09 06:51:55;;;;;;;0.70;0.63;;;16.50;99.90;;;;;;5066940;28;20533;-72
2023/10/09 06:54:27;;;;;;;0.70;0.30;;;16.50;99.90;;;;;;5067291;28;20465;-72
2023/10/09 06:59:43;;;;;;;2.30;1.20;;;16.40;99.90;;;;;;5062996;28;20442;-73
2023/10/09 07:02:25;;;;;;;6.43;1.10;;;16.40;99.90;;;;;;5053767;28;20924;-72
2023/10/09 07:04:55;;;;;;;1.23;0.70;;;16.20;99.90;;;;;;5054109;28;20465;-72
2023/10/09 07:07:24;;;;;;;1.07;0.97;;;16.20;99.90;;;;;;5053988;28;20445;-72
2023/10/09 07:13:03;;;;;;;0.80;0.37;;;16.10;99.90;;;;;;5029788;28;20463;-72
2023/10/09 07:18:40;;;;;;;0.90;0.60;;;16.20;99.90;;;;;;5034535;28;20465;-72
2023/10/09 07:21:11;;;;;;;0.60;0.10;;;16.30;99.90;;;;;;5053044;28;20519;-72
2023/10/09 07:23:48;;;;;;;0.60;0.13;;;16.30;99.90;;;;;;5040417;28;20549;-71
2023/10/09 07:26:23;;;;;;;0.60;0.20;;;16.50;99.90;;;;;;5045894;28;20465;-73
2023/10/09 07:29:00;;;;;;;0.70;0.50;;;16.50;99.90;;;;;;5047603;28;20482;-72
2023/10/09 07:31:39;;;;;;;0.60;0.13;;;16.50;99.90;;;;;;5033475;28;20520;-70
2023/10/09 07:34:30;;;;;;;0.60;0.10;;;16.60;99.90;;;;;;5039472;28;20545;-70
2023/10/09 07:36:57;;;;;;;1.20;0.37;;;16.70;99.90;;;;;;5050050;28;20546;-72
2023/10/09 07:39:34;;;;;;;2.37;1.10;;;16.60;99.90;;;;;;5053002;28;21166;-71
2023/10/09 07:42:19;;;;;;;0.60;0.10;;;16.70;99.90;;;;;;5051930;28;20540;-72
2023/10/09 07:44:52;;;;;;;1.73;0.60;;;16.90;99.90;;;;;;5034645;28;20473;-73
2023/10/09 07:47:33;;;;;;;3.90;1.13;;;16.80;99.90;;;;;;5033264;28;20476;-72
2023/10/09 07:50:02;;;;;;;0.70;0.30;;;16.70;99.90;;;;;;5033471;28;20498;-73
2023/10/09 07:52:30;;;;;;;2.77;2.57;;;16.70;99.90;;;;;;5039513;28;20493;-73
2023/10/09 07:55:05;;;;;;;0.60;0.30;;;16.70;99.90;;;;;;5054165;28;20466;-73
2023/10/09 07:57:42;;;;;;;1.90;1.80;;;;;;;;;;5041614;28;20450;-72
2023/10/09 08:00:36;;;;;;;0.60;0.10;;;16.90;99.90;;;;;;5051658;28;20446;-72
2023/10/09 08:03:23;;;;;;;0.60;0.10;;;16.90;99.90;;;;;;5052794;28;20473;-73
2023/10/09 08:05:53;;;;;;;0.93;0.87;;;17.00;99.90;;;;;;5041603;28;20532;-72
2023/10/09 08:14:02;;;;;;;0.60;0.20;;;17.20;99.90;;;;;;5047322;28;20791;-71
2023/10/09 08:16:37;;;;;;;0.60;0.20;;;17.20;99.90;;;;;;5052777;28;20445;-70
2023/10/09 08:19:33;;;;;;;0.60;0.20;;;17.20;99.90;;;;;;5094188;28;20447;-70
2023/10/09 08:24:55;;;;;;;0.60;0.10;;;17.40;99.90;;;;;;5066983;28;20518;-70
2023/10/09 08:27:54;;;;;;;1.13;1.03;;;17.40;99.90;;;;;;5073677;28;20507;-70
2023/10/09 08:30:28;;;;;;;1.53;1.43;;;17.40;99.90;;;;;;5071939;28;21064;-71
2023/10/09 08:33:02;;;;;;;0.80;0.70;;;17.30;99.90;;;;;;5072287;28;20445;-70
2023/10/09 08:35:33;;;;;;;5.33;0.70;;;17.30;99.90;;;;;;5075469;28;20466;-73
2023/10/09 08:38:07;;;;;;;0.60;0.10;;;17.30;99.90;;;;;;5085066;28;20449;-72
2023/10/09 08:40:39;;;;;;;0.60;0.20;;;17.30;99.90;;;;;;5052434;28;20445;-70
2023/10/09 08:43:14;;;;;;;0.60;0.10;;;17.30;99.90;;;;;;5069611;28;20440;-71
2023/10/09 08:45:46;;;;;;;0.60;0.10;;;17.30;99.90;;;;;;5064953;28;20499;-70
2023/10/09 08:48:16;;;;;;;0.90;0.90;;;17.40;99.90;;;;;;5071706;28;20483;-70
2023/10/09 08:50:45;;;;;;;0.60;0.10;;;;;;;;;;5062915;28;20531;-69
2023/10/09 08:53:13;;;;;;;0.60;0.10;;;17.40;99.90;;;;;;5060156;28;21144;-70
2023/10/09 08:55:43;;;;;;;0.60;0.20;;;17.50;99.90;;;;;;5071277;28;20559;-69
2023/10/09 08:58:19;;;;;;;0.60;0.20;;;17.50;99.90;;;;;;5071305;28;20448;-70
2023/10/09 09:00:49;;;;;;;0.60;0.10;;;17.60;99.90;;;;;;5075251;28;20963;-70
2023/10/09 09:03:17;;;;;;;1.03;0.93;;;17.50;99.90;;;;;;5071378;28;20449;-73
2023/10/09 09:05:49;;;;;;;0.60;0.20;;;17.80;99.90;;;;;;5071064;28;20893;-73
2023/10/09 09:08:28;;;;;;;2.20;2.00;;;17.80;99.90;;;;;;5070766;28;20452;-73
2023/10/09 09:11:11;;;;;;;0.60;0.10;;;17.90;99.90;;;;;;5070787;28;20480;-72
2023/10/09 09:13:42;;;;;;;3.60;1.27;;;17.80;99.90;;;;;;5070982;28;20453;-72
2023/10/09 09:16:20;;;;;;;0.60;0.10;;;17.90;99.90;;;;;;5071131;28;20433;-71
2023/10/09 09:19:00;;;;;;;0.60;0.30;;;17.90;99.90;;;;;;5070535;28;20476;-73
2023/10/09 09:21:28;;;;;;;0.60;0.10;;;17.90;99.90;;;;;;5070235;28;20939;-73
2023/10/09 09:24:00;;;;;;;1.80;0.57;;;14.20;99.90;;;;;;5070159;28;20532;-74
2023/10/09 09:26:44;;;;;;;0.60;0.30;;;17.80;99.90;;;;;;5070289;28;20453;-72
2023/10/09 09:29:13;;;;;;;0.60;0.30;;;17.80;99.90;;;;;;5072214;28;20451;-73
2023/10/09 09:32:15;;;;;;;0.60;0.20;;;17.80;99.90;;;;;;5091008;28;20445;-74
2023/10/09 09:34:46;;;;;;;0.60;0.10;;;17.80;99.90;;;;;;5063042;28;20550;-72
2023/10/09 09:37:20;;;;;;;0.60;0.10;;;17.90;99.90;;;;;;5070634;28;20441;-72
2023/10/09 09:39:51;;;;;;;0.60;0.20;;;17.70;99.90;;;;;;5070268;28;20987;-72
2023/10/09 09:42:26;;;;;;;0.60;0.20;;;17.80;99.90;;;;;;5070398;28;20438;-72
2023/10/09 09:44:57;;;;;;;0.60;0.10;;;17.90;99.90;;;;;;5077897;28;20464;-72
2023/10/09 09:47:27;;;;;;;0.60;0.20;;;18.00;99.90;;;;;;5075637;28;20456;-72
2023/10/09 09:50:00;;;;;;;0.60;0.10;;;18.10;99.90;;;;;;5079931;28;20507;-71
2023/10/09 09:52:38;;;;;;;0.60;0.20;;;18.10;99.90;;;;;;5068044;28;20462;-71
2023/10/09 09:55:14;;;;;;;0.60;0.10;;;18.20;99.90;;;;;;5062198;28;20470;-73
2023/10/09 09:57:45;;;;;;;0.60;0.10;;;18.20;99.90;;;;;;5071214;28;20441;-73
2023/10/09 10:00:30;;;;;;;0.60;0.10;;;18.30;99.90;;;;;;5070703;28;20445;-73
2023/10/09 10:03:06;;;;;;;4.30;0.97;;;18.30;99.90;;;;;;5090584;28;20436;-73
2023/10/09 10:05:35;;;;;;;0.60;0.20;;;18.30;99.90;;;;;;5090348;28;20876;-73
2023/10/09 10:08:05;;;;;;;0.60;0.20;;;18.40;99.90;;;;;;5090405;28;20441;-73
2023/10/09 10:10:39;;;;;;;0.60;0.10;;;18.30;99.90;;;;;;5090647;28;20490;-71
2023/10/09 10:13:14;;;;;;;0.60;0.10;;;18.20;99.90;;;;;;5085741;28;20946;-70
2023/10/09 10:16:02;;;;;;;2.20;1.37;;;;;;;;;;5090418;28;20475;-72
2023/10/09 10:18:35;;;;;;;2.50;1.90;;;18.00;99.90;;;;;;5091654;28;20432;-71
2023/10/09 10:21:16;;;;;;;0.60;0.10;;;18.10;99.90;;;;;;5076109;22;20606;-77
2023/10/09 10:23:47;;;;;;;0.60;0.20;;;18.10;99.90;;;;;;5031184;28;20514;-77
2023/10/09 10:26:25;;;;;;;1.83;1.40;;;18.20;99.90;;;;;;5026010;28;20436;-77
2023/10/09 10:29:22;;;;;;;3.63;0.83;;;18.20;99.90;;;;;;5015715;28;20448;-77
2023/10/09 10:32:00;;;;;;;2.80;2.07;;;18.20;99.90;;;;;;5008101;28;20487;-79
2023/10/09 10:34:56;;;;;;;2.07;0.63;;;18.20;99.90;;;;;;5015247;28;20534;-73
2023/10/09 10:37:38;;;;;;;0.60;0.10;;;18.10;99.90;;;;;;5013704;28;20480;-76
2023/10/09 10:40:13;;;;;;;1.33;1.17;;;18.20;99.90;;;;;;5008677;28;20463;-75
2023/10/09 10:43:05;;;;;;;1.23;0.67;;;18.20;99.90;;;;;;5004125;28;20474;-75
2023/10/09 10:45:35;;;;;;;0.60;0.10;;;18.40;99.90;;;;;;5010133;28;20455;-78
2023/10/09 10:48:09;;;;;;;0.70;0.47;;;18.50;99.90;;;;;;5000895;28;20445;-77
2023/10/09 10:50:38;;;;;;;0.60;0.20;;;18.50;99.90;;;;;;4998079;28;20522;-76
2023/10/09 10:53:16;;;;;;;0.60;0.20;;;18.60;99.90;;;;;;5006427;28;20546;-77
2023/10/09 10:56:17;;;;;;;0.60;0.20;;;18.60;99.90;;;;;;5021221;28;20487;-77
2023/10/09 11:04:24;;;;;;;0.60;0.10;;;18.80;99.90;;;;;;5022408;28;20478;-76
2023/10/09 11:07:00;;;;;;;0.70;0.30;;;18.90;99.90;;;;;;5009585;28;20460;-76
2023/10/09 11:09:57;;;;;;;3.70;0.40;;;18.90;99.90;;;;;;5009386;28;20500;-77
2023/10/09 11:12:45;;;;;;;0.60;0.10;;;19.00;99.90;;;;;;5015796;28;20490;-76
2023/10/09 11:15:37;;;;;;;1.77;0.63;;;19.00;99.90;;;;;;5021860;28;20452;-76
2023/10/09 11:18:16;;;;;;;2.10;1.10;;;19.00;99.90;;;;;;5023444;28;20506;-77
2023/10/09 11:20:56;;;;;;;1.73;1.07;;;19.00;99.90;;;;;;5013694;28;20522;-76
2023/10/09 11:23:36;;;;;;;1.90;0.77;;;;;;;;;;5022153;28;20437;-78
2023/10/09 11:26:25;;;;;;;0.70;0.50;;;19.10;99.90;;;;;;5019602;28;20472;-78
2023/10/09 11:29:13;;;;;;;2.40;1.07;;;;;;;;;;5018364;28;20515;-77
2023/10/09 11:31:45;;;;;;;3.40;0.70;;;19.10;99.90;;;;;;5018750;28;20491;-77
2023/10/09 11:34:28;;;;;;;4.73;2.20;;;19.20;99.90;;;;;;5014021;28;20886;-76
2023/10/09 11:36:58;;;;;;;0.60;0.20;;;19.20;99.90;;;;;;5013655;28;20451;-76
2023/10/09 11:39:32;;;;;;;1.70;1.23;;;19.50;99.90;;;;;;5017709;28;20464;-76
2023/10/09 11:42:07;;;;;;;0.63;0.30;;;19.50;99.90;;;;;;5019857;28;20437;-76
2023/10/09 11:44:39;;;;;;;0.70;0.30;;;19.60;99.90;;;;;;5017703;28;20498;-77
2023/10/09 11:47:24;;;;;;;0.60;0.20;;;19.60;99.90;;;;;;5018747;28;20686;-77
2023/10/09 11:50:02;;;;;;;2.20;0.73;;;19.70;99.90;;;;;;5014526;28;20485;-78
2023/10/09 11:52:38;;;;;;;0.90;0.70;;;;;;;;;;5016618;28;20481;-78
2023/10/09 11:55:07;;;;;;;0.80;0.47;;;19.70;99.90;;;;;;5014303;28;20444;-77
2023/10/09 11:57:35;;;;;;;0.60;0.20;;;22.00;99.90;;;;;;5018412;28;20544;-77
2023/10/09 12:00:29;;;;;;;5.53;1.30;;;19.80;99.90;;;;;;5018452;28;20847;-77
2023/10/09 12:03:04;;;;;;;0.60;0.20;;;;;;;;;;5021406;28;20451;-78
2023/10/09 12:05:33;;;;;;;0.80;0.40;;;19.90;99.90;;;;;;5013085;28;20469;-77
2023/10/09 12:08:03;;;;;;;4.17;2.33;;;19.90;99.90;;;;;;5019398;28;20533;-78
2023/10/09 12:10:33;;;;;;;1.67;0.80;;;19.90;99.90;;;;;;4999337;28;21193;-78
2023/10/09 12:13:04;;;;;;;0.80;0.23;;;;;;;;;;5006472;28;20462;-77
2023/10/09 12:15:37;;;;;;;0.60;0.10;;;20.00;99.90;;;;;;5018953;28;20445;-79
2023/10/09 12:18:15;;;;;;;0.60;0.20;;;20.20;99.90;;;;;;5012396;28;20438;-78
2023/10/09 12:20:50;;;;;;;0.60;0.20;;;20.20;99.90;;;;;;5013860;28;20489;-77
2023/10/09 12:23:22;;;;;;;4.87;2.70;;;20.20;99.90;;;;;;5012479;28;20470;-77
2023/10/09 12:25:56;;;;;;;0.60;0.20;;;20.20;99.90;;;;;;5016906;28;20531;-78
2023/10/09 12:28:24;;;;;;;8.83;1.93;;;20.20;99.90;;;;;;5013979;28;20497;-76
2023/10/09 12:30:54;;;;;;;1.20;0.50;;;20.30;99.90;;;;;;5003087;28;20462;-77
2023/10/09 12:33:27;;;;;;;0.60;0.10;;;20.30;99.90;;;;;;5005492;28;20501;-76
2023/10/09 12:35:59;;;;;;;0.70;0.53;;;20.40;99.90;;;;;;5012778;28;20958;-77
2023/10/09 12:38:31;;;;;;;0.60;0.20;;;20.40;99.90;;;;;;5016989;28;20444;-79
2023/10/09 12:41:19;;;;;;;0.60;0.27;;;20.50;99.90;;;;;;5020930;28;20464;-78
2023/10/09 12:43:47;;;;;;;1.13;0.60;;;20.60;99.90;;;;;;5016811;28;20506;-78
2023/10/09 12:46:16;;;;;;;0.70;0.60;;;20.50;99.90;;;;;;5017774;28;20499;-78
2023/10/09 12:48:46;;;;;;;0.60;0.17;;;20.50;99.90;;;;;;5016161;28;20442;-77
2023/10/09 12:51:17;;;;;;;4.33;2.70;;;20.60;99.90;;;;;;5018739;28;20493;-77
2023/10/09 12:53:45;;;;;;;0.60;0.10;;;20.70;99.90;;;;;;5012146;28;20438;-78
2023/10/09 12:56:18;;;;;;;0.90;0.30;;;20.60;99.90;;;;;;5015229;28;20528;-79
2023/10/09 12:58:53;;;;;;;1.10;0.50;;;;;;;;;;5000632;28;20458;-77
2023/10/09 13:01:21;;;;;;;0.90;0.33;;;20.70;99.90;;;;;;5029391;28;20509;-76
2023/10/09 13:03:51;;;;;;;2.80;0.93;;;20.70;99.90;;;;;;5016016;28;20455;-75
2023/10/09 13:06:23;;;;;;;3.93;1.73;;;20.80;99.90;;;;;;5022164;28;20455;-76
2023/10/09 13:08:59;;;;;;;3.70;1.20;;;;;;;;;;5027361;28;20462;-78
2023/10/09 13:11:29;;;;;;;0.60;0.10;;;;;;;;;;5026633;28;20520;-77
2023/10/09 13:14:11;;;;;;;0.60;0.20;;;20.90;99.90;;;;;;5038397;28;20496;-76
2023/10/09 13:16:40;;;;;;;3.47;0.57;;;21.00;99.90;;;;;;5021189;28;20443;-77
2023/10/09 13:19:09;;;;;;;0.80;0.40;;;21.10;99.90;;;;;;5016074;28;20458;-76
2023/10/09 13:21:39;;;;;;;0.70;0.40;;;21.10;99.90;;;;;;5018586;28;20477;-77
2023/10/09 13:24:12;;;;;;;0.60;0.20;;;21.10;99.90;;;;;;5016160;28;20442;-78
2023/10/09 13:26:44;;;;;;;0.60;0.20;;;21.20;99.90;;;;;;5007257;28;20436;-77
2023/10/09 13:29:14;;;;;;;0.60;0.37;;;21.20;99.90;;;;;;5014114;28;20932;-77
2023/10/09 13:31:47;;;;;;;0.60;0.17;;;21.20;99.90;;;;;;5030278;28;20506;-78
2023/10/09 13:34:16;;;;;;;0.70;0.30;;;21.10;99.90;;;;;;5019322;28;20842;-78
2023/10/09 13:36:50;;;;;;;0.60;0.20;;;21.10;99.90;;;;;;5012288;28;21045;-78
2023/10/09 13:39:23;;;;;;;2.20;2.00;;;21.20;99.90;;;;;;5011573;28;20537;-76
2023/10/09 13:41:57;;;;;;;0.60;0.10;;;21.30;99.90;;;;;;5006748;28;20576;-77
2023/10/09 13:44:27;;;;;;;0.70;0.43;;;21.30;99.90;;;;;;5018748;28;20830;-77
2023/10/09 13:46:56;;;;;;;0.60;0.10;;;21.30;99.90;;;;;;5015685;28;20525;-77
2023/10/09 13:49:29;;;;;;;0.60;0.20;;;21.30;99.90;;;;;;5004338;28;20466;-78
2023/10/09 13:51:59;;;;;;;4.63;1.17;;;21.30;99.90;;;;;;5007614;28;20483;-77
2023/10/09 13:54:39;;;;;;;1.30;0.43;;;21.20;99.90;;;;;;5004978;28;20482;-76
2023/10/09 13:57:10;;;;;;;0.97;0.70;;;21.20;99.90;;;;;;4994552;28;20534;-77
2023/10/09 13:59:43;;;;;;;0.60;0.20;;;21.20;99.90;;;;;;5006926;28;20541;-76
2023/10/09 14:02:17;;;;;;;0.60;0.30;;;21.20;99.90;;;;;;5003645;28;20524;-76
2023/10/09 14:04:46;;;;;;;0.60;0.10;;;21.20;99.90;;;;;;5012929;28;20447;-77
2023/10/09 14:07:17;;;;;;;0.60;0.30;;;21.20;99.90;;;;;;5004818;28;20541;-78
2023/10/09 14:09:55;;;;;;;2.67;2.57;;;21.20;99.90;;;;;;5012941;28;21156;-78
2023/10/09 14:12:29;;;;;;;0.60;0.10;;;21.20;99.90;;;;;;5017649;28;20497;-77
2023/10/09 14:14:57;;;;;;;0.60;0.10;;;21.20;99.90;;;;;;5016613;28;20467;-77
2023/10/09 14:17:27;;;;;;;0.60;0.10;;;21.30;99.90;;;;;;5016182;28;21033;-77
2023/10/09 14:20:25;;;;;;;0.60;0.10;;;21.20;99.90;;;;;;5009499;28;20474;-76
2023/10/09 14:22:52;;;;;;;0.60;0.10;;;21.30;99.90;;;;;;5017036;28;20442;-76
2023/10/09 14:25:21;;;;;;;0.60;0.10;;;21.20;99.90;;;;;;5009815;28;20446;-76
2023/10/09 14:27:52;;;;;;;0.60;0.10;;;21.20;99.90;;;;;;5005256;28;21026;-77
2023/10/09 14:30:30;;;;;;;0.90;0.37;;;21.20;99.90;;;;;;4997024;28;20475;-76
2023/10/09 14:33:01;;;;;;;0.60;0.10;;;21.10;99.90;;;;;;5005408;28;21004;-76
2023/10/09 14:35:30;;;;;;;0.60;0.20;;;21.10;99.90;;;;;;5009893;28;21175;-76
2023/10/09 14:38:01;;;;;;;0.60;0.10;;;21.10;99.90;;;;;;5021309;28;20446;-77
2023/10/09 14:40:31;;;;;;;0.60;0.10;;;21.10;99.90;;;;;;5016738;28;20470;-77
2023/10/09 14:43:00;;;;;;;0.60;0.10;;;21.20;99.90;;;;;;5015580;28;20437;-76
2023/10/09 14:45:28;;;;;;;0.60;0.10;;;21.10;99.90;;;;;;5016628;28;20533;-75
2023/10/09 14:47:59;;;;;;;0.60;0.10;;;21.20;99.90;;;;;;5016504;28;20804;-76
2023/10/09 14:50:28;;;;;;;0.60;0.10;;;21.20;99.90;;;;;;5009817;28;20517;-77
2023/10/09 14:52:56;;;;;;;0.60;0.10;;;21.20;99.90;;;;;;5011311;28;21005;-77
2023/10/09 14:55:28;;;;;;;0.60;0.10;;;21.20;99.90;;;;;;5017750;28;20450;-76
2023/10/09 14:57:58;;;;;;;0.60;0.10;;;21.20;99.90;;;;;;5017592;28;20446;-77
2023/10/09 15:00:33;;;;;;;0.60;0.20;;;21.20;99.90;;;;;;5014932;28;20494;-76
2023/10/09 15:03:03;;;;;;;0.60;0.13;;;21.10;99.90;;;;;;5021274;28;20438;-75
2023/10/09 15:05:33;;;;;;;0.60;0.10;;;21.10;99.90;;;;;;5016975;28;20492;-77
2023/10/09 15:08:04;;;;;;;0.60;0.10;;;21.20;99.90;;;;;;5017442;28;20509;-77
2023/10/09 15:10:32;;;;;;;0.60;0.10;;;21.20;99.90;;;;;;5019162;28;20843;-76
2023/10/09 15:13:00;;;;;;;0.60;0.10;;;21.20;99.90;;;;;;5013437;28;20531;-77
2023/10/09 15:15:30;;;;;;;0.60;0.13;;;21.10;99.90;;;;;;5014483;28;20847;-76
2023/10/09 15:17:58;;;;;;;0.60;0.10;;;21.10;99.90;;;;;;5010921;28;20508;-76
2023/10/09 15:20:27;;;;;;;0.60;0.10;;;21.10;99.90;;;;;;5002711;28;20491;-76
2023/10/09 15:22:54;;;;;;;0.60;0.10;;;21.20;99.90;;;;;;5003333;28;20440;-76
2023/10/09 15:25:22;;;;;;;0.60;0.10;;;21.20;99.90;;;;;;5002004;28;20451;-76
2023/10/09 15:27:50;;;;;;;0.60;0.13;;;21.20;99.90;;;;;;5014738;28;20477;-77
2023/10/09 15:30:18;;;;;;;0.60;0.10;;;21.20;99.90;;;;;;5013520;28;20491;-76
2023/10/09 15:32:49;;;;;;;0.60;0.20;;;21.20;99.90;;;;;;5004881;28;20492;-76
2023/10/09 15:35:18;;;;;;;0.60;0.10;;;21.20;99.90;;;;;;5014512;28;20819;-76
2023/10/09 15:37:46;;;;;;;0.60;0.10;;;21.20;99.90;;;;;;5014253;28;20454;-77
2023/10/09 15:40:15;;;;;;;0.60;0.23;;;21.10;99.90;;;;;;5016507;28;20467;-76
2023/10/09 15:42:49;;;;;;;0.63;0.27;;;21.10;99.90;;;;;;5016713;28;20477;-77
2023/10/09 15:45:17;;;;;;;0.70;0.50;;;21.10;99.90;;;;;;5010945;28;20502;-77
2023/10/09 15:47:46;;;;;;;0.60;0.20;;;21.10;99.90;;;;;;5005422;28;20482;-77
2023/10/09 15:50:14;;;;;;;0.70;0.30;;;21.20;99.90;;;;;;4996660;28;21012;-77
2023/10/09 15:52:42;;;;;;;0.70;0.40;;;21.30;99.90;;;;;;5014287;28;20493;-76
2023/10/09 15:55:13;;;;;;;0.60;0.10;;;21.20;99.90;;;;;;5012129;28;20445;-78
2023/10/09 15:57:41;;;;;;;1.93;1.43;;;21.20;99.90;;;;;;5020477;28;20447;-78
2023/10/09 16:00:17;;;;;;;0.80;0.50;;;21.20;99.90;;;;;;5028884;28;20467;-76
2023/10/09 16:02:47;;;;;;;0.83;0.83;;;21.20;99.90;;;;;;5019817;28;20451;-76
2023/10/09 16:05:16;;;;;;;0.60;0.20;;;21.30;99.90;;;;;;5021261;28;21053;-77
2023/10/09 16:07:45;;;;;;;0.60;0.20;;;21.20;99.90;;;;;;5015726;28;20451;-77
2023/10/09 16:10:12;;;;;;;2.70;0.57;;;21.30;99.90;;;;;;5014622;28;20463;-77
2023/10/09 16:12:41;;;;;;;1.27;0.47;;;21.30;99.90;;;;;;5014665;28;20530;-77
2023/10/09 16:15:10;;;;;;;0.70;0.40;;;;;;;;;;5004703;28;20964;-77
2023/10/09 16:17:39;;;;;;;0.60;0.20;;;21.30;99.90;;;;;;5008799;28;20517;-77
2023/10/09 16:20:14;;;;;;;3.77;2.17;;;21.30;99.90;;;;;;5009242;28;20514;-77
2023/10/09 16:22:42;;;;;;;4.10;1.10;;;21.20;99.90;;;;;;4995093;28;20444;-78
2023/10/09 16:28:02;;;;;;;0.93;0.50;;;21.10;99.90;;;;;;5009405;28;20475;-71
2023/10/09 16:30:31;;;;;;;0.60;0.10;;;21.10;99.90;;;;;;5010895;28;20812;-72
2023/10/09 16:33:00;;;;;;;0.60;0.10;;;21.10;99.90;;;;;;5010154;28;20470;-70
2023/10/09 16:35:30;;;;;;;0.60;0.10;;;21.10;99.90;;;;;;5011733;28;20865;-71
2023/10/09 16:37:58;;;;;;;0.60;0.10;;;21.10;99.90;;;;;;5012415;28;20949;-72
2023/10/09 16:40:26;;;;;;;0.60;0.10;;;21.10;99.90;;;;;;5013341;28;20448;-70
2023/10/09 16:42:54;;;;;;;0.60;0.20;;;21.00;99.90;;;;;;5012803;28;20476;-71
2023/10/09 16:45:25;;;;;;;0.90;0.77;;;21.00;99.90;;;;;;5017690;28;20859;-72
2023/10/09 16:47:54;;;;;;;0.60;0.10;;;21.00;99.90;;;;;;5011579;28;20513;-72
2023/10/09 16:50:25;;;;;;;0.60;0.13;;;21.00;99.90;;;;;;5012385;28;20455;-70
2023/10/09 16:52:57;;;;;;;0.70;0.63;;;21.00;99.90;;;;;;5012042;28;20471;-70
2023/10/09 16:55:25;;;;;;;0.60;0.30;;;21.00;99.90;;;;;;5017403;28;21037;-70
2023/10/09 16:57:55;;;;;;;0.60;0.10;;;20.90;99.90;;;;;;5028662;28;20549;-71
2023/10/09 17:00:29;;;;;;;6.53;2.10;;;;;;;;;;5011230;28;20467;-71
2023/10/09 17:02:59;;;;;;;0.60;0.10;;;20.80;99.90;;;;;;5022879;28;20563;-71
2023/10/09 17:05:36;;;;;;;0.63;0.27;;;20.80;99.90;;;;;;5016397;28;20459;-71
2023/10/09 17:08:09;;;;;;;0.60;0.10;;;20.70;99.90;;;;;;5011114;28;20799;-71
2023/10/09 17:10:45;;;;;;;0.60;0.20;;;20.70;99.90;;;;;;5011305;28;20450;-72
2023/10/09 17:13:20;;;;;;;0.60;0.20;;;;;;;;;;5011159;28;20858;-70
2023/10/09 17:15:52;;;;;;;0.80;0.50;;;;;;;;;;5011237;28;20498;-71
2023/10/09 17:18:24;;;;;;;0.60;0.20;;;20.90;99.90;;;;;;5017214;28;21002;-70
2023/10/09 17:20:54;;;;;;;0.80;0.57;;;21.00;99.80;;;;;;5012881;28;20458;-69
2023/10/09 17:23:24;;;;;;;0.60;0.10;;;;;;;;;;5012887;28;20919;-71
2023/10/09 17:25:57;;;;;;;0.60;0.20;;;21.00;97.80;;;;;;5012239;28;20464;-72
2023/10/09 17:28:26;;;;;;;4.00;0.53;;;21.10;97.20;;;;;;5012065;28;20863;-72
2023/10/09 17:31:01;;;;;;;3.33;1.07;;;21.10;96.00;;;;;;5011933;28;20484;-72
2023/10/09 17:33:30;;;;;;;0.70;0.30;;;21.10;94.80;;;;;;5010418;28;20450;-72
2023/10/09 17:35:59;;;;;;;0.60;0.20;;;21.10;95.30;;;;;;5009037;28;20473;-70
2023/10/09 17:38:30;;;;;;;0.60;0.10;;;21.10;94.70;;;;;;5016536;28;20485;-73
2023/10/09 17:40:59;;;;;;;0.60;0.10;;;21.10;99.90;;;;;;5011451;28;20505;-72
2023/10/09 17:43:27;;;;;;;0.60;0.10;;;21.20;94.30;;;;;;5010911;28;20459;-72
2023/10/09 17:45:55;;;;;;;0.60;0.10;;;21.20;93.80;;;;;;5012320;28;20467;-71
2023/10/09 17:48:23;;;;;;;0.60;0.10;;;21.10;94.20;;;;;;5010874;28;20538;-73
2023/10/09 17:50:52;;;;;;;0.60;0.10;;;21.10;99.90;;;;;;5011150;28;20459;-73
2023/10/09 17:53:20;;;;;;;0.70;0.47;;;21.10;94.80;;;;;;5011456;28;20954;-71
2023/10/09 17:55:53;;;;;;;0.60;0.10;;;21.10;94.10;;;;;;5010551;28;20569;-71
2023/10/09 17:58:23;;;;;;;0.60;0.10;;;21.10;93.80;;;;;;5010595;28;20455;-71
2023/10/09 18:00:54;;;;;;;0.60;0.20;;;21.10;94.00;;;;;;5010491;28;20800;-71
2023/10/09 18:03:27;;;;;;;0.60;0.10;;;21.00;95.30;;;;;;5011628;28;20446;-72
2023/10/09 18:05:55;;;;;;;0.60;0.10;;;20.90;97.50;;;;;;5010458;28;20479;-73
2023/10/09 18:08:25;;;;;;;0.60;0.10;;;20.90;99.90;;;;;;5011175;28;20803;-73
2023/10/09 18:10:56;;;;;;;0.60;0.10;;;20.80;99.90;;;;;;5010878;28;20794;-73
2023/10/09 18:13:25;;;;;;;0.60;0.10;;;20.60;99.90;;;;;;5010855;28;20650;-74
2023/10/09 18:16:07;;;;;;;0.60;0.10;;;20.50;99.90;;;;;;5010584;28;20996;-73
2023/10/09 18:18:36;;;;;;;0.60;0.20;;;20.50;99.90;;;;;;5011172;28;20458;-73
2023/10/09 18:21:06;;;;;;;0.60;0.10;;;20.40;99.90;;;;;;5011263;28;20494;-72
2023/10/09 18:23:35;;;;;;;0.60;0.10;;;20.40;99.90;;;;;;5011041;28;20452;-73
2023/10/09 18:26:06;;;;;;;0.60;0.10;;;20.40;99.90;;;;;;5010896;28;20471;-72
2023/10/09 18:28:36;;;;;;;0.60;0.13;;;20.40;99.90;;;;;;5011333;28;20486;-71
2023/10/09 18:31:12;;;;;;;0.60;0.20;;;20.40;99.90;;;;;;5011371;28;20815;-73
2023/10/09 18:33:42;;;;;;;0.60;0.10;;;20.30;99.90;;;;;;5015062;28;20466;-74
2023/10/09 18:36:10;;;;;;;0.60;0.20;;;20.20;99.90;;;;;;5003324;28;20866;-72
2023/10/09 18:38:40;;;;;;;0.60;0.10;;;20.20;99.90;;;;;;5010976;28;21015;-74